Time;durP1;ratioP1;P1;durP2;ratioP2;P2;SDS_P1;SDS_P2;PMS_P1;PMS_P2;Temp;Humidity;BMP_temperature;BMP_pressure;BME280_temperature;BME280_humidity;BME280_pressure;Samples;Min_cycle;Max_cycle;Signal;HPM_P1;HPM_P2
2024/01/19 00:00:15;;;;;;;81.25;31.42;;;;;;;;;;4863127;29;20124;-91
2024/01/19 00:02:42;;;;;;;84.63;31.20;;;;;;;;;;4884575;29;20128;-90
2024/01/19 00:05:09;;;;;;;103.43;34.20;;;;;;;;;;4861285;29;20033;-90
2024/01/19 00:07:36;;;;;;;113.13;33.63;;;;;;;;;;4870165;29;20040;-90
2024/01/19 00:10:03;;;;;;;89.65;31.55;;;;;;;;;;4876448;29;20045;-90
2024/01/19 00:12:35;;;;;;;109.97;33.83;;;;;;;;;;4843948;29;20076;-90
2024/01/19 00:15:09;;;;;;;122.38;32.22;;;;;;;;;;4878997;29;20515;-90
2024/01/19 00:17:35;;;;;;;;;;;;;;;;;;4861185;29;20053;-91
2024/01/19 00:20:03;;;;;;;80.68;30.73;;;;;;;;;;4875565;29;19930;-90
2024/01/19 00:22:30;;;;;;;89.07;31.40;;;;;;;;;;4874466;29;20133;-90
2024/01/19 00:24:57;;;;;;;109.40;32.30;;;;;;;;;;4875275;29;20029;-90
2024/01/19 00:27:23;;;;;;;84.65;28.67;;;;;;;;;;4879426;29;20089;-90
2024/01/19 00:29:50;;;;;;;94.05;29.55;;;;;;;;;;4874787;29;20557;-90
2024/01/19 00:32:17;;;;;;;78.28;24.40;;;;;;;;;;4862469;29;20041;-90
2024/01/19 00:34:43;;;;;;;70.30;26.10;;;;;;;;;;4858650;29;20032;-90
2024/01/19 00:37:10;;;;;;;73.72;26.73;;;;;;;;;;4872340;29;20037;-90
2024/01/19 00:39:37;;;;;;;104.05;28.52;;;;;;;;;;4860566;29;20519;-91
2024/01/19 00:42:03;;;;;;;75.82;26.90;;;;;;;;;;4875148;29;20037;-90
2024/01/19 00:44:30;;;;;;;95.35;27.48;;;;;;;;;;4859840;29;20480;-91
2024/01/19 00:46:57;;;;;;;96.93;26.35;;;;;;;;;;4859647;29;20445;-90
2024/01/19 00:49:23;;;;;;;73.72;24.70;;;;;;;;;;4878548;29;20033;-90
2024/01/19 00:51:50;;;;;;;75.75;24.30;;;;;;;;;;4878357;29;20041;-89
2024/01/19 00:54:17;;;;;;;81.90;25.95;;;;;;;;;;4875407;29;20061;-91
2024/01/19 00:56:43;;;;;;;64.63;23.65;;;;;;;;;;4859819;29;20052;-89
2024/01/19 00:59:10;;;;;;;66.88;23.98;;;;;;;;;;4872615;29;20078;-90
2024/01/19 01:01:37;;;;;;;87.43;25.25;;;;;;;;;;4878200;29;20041;-90
2024/01/19 01:04:04;;;;;;;56.08;18.25;;;;;;;;;;4861214;29;20049;-88
2024/01/19 01:06:31;;;;;;;73.95;19.55;;;;;;;;;;4861338;29;20051;-90
2024/01/19 01:08:58;;;;;;;93.95;21.05;;;;;;;;;;4862094;29;20120;-90
2024/01/19 01:11:27;;;;;;;83.40;24.08;;;;;;;;;;4874958;29;20381;-89
2024/01/19 01:13:54;;;;;;;48.13;16.67;;;;;;;;;;4869332;29;20131;-91
2024/01/19 01:16:21;;;;;;;78.97;24.00;;;;;;;;;;4861188;29;20076;-89
2024/01/19 01:18:48;;;;;;;74.07;21.65;;;;;;;;;;4878704;29;20048;-90
2024/01/19 01:21:14;;;;;;;54.80;19.98;;;;;;;;;;4878584;29;20107;-89
2024/01/19 01:23:41;;;;;;;51.50;14.95;;;;;;;;;;4859613;29;20057;-89
2024/01/19 01:26:08;;;;;;;66.55;21.92;;;;;;;;;;4861781;29;20029;-89
2024/01/19 01:28:34;;;;;;;68.18;20.83;;;;;;;;;;4861892;29;20041;-89
2024/01/19 01:31:01;;;;;;;74.70;21.23;;;;;;;;;;4879386;29;20041;-88
2024/01/19 01:33:29;;;;;;;84.07;28.98;;;;;;;;;;4867727;29;20041;-88
2024/01/19 01:35:56;;;;;;;72.82;23.35;;;;;;;;;;4871365;29;20059;-89
2024/01/19 01:38:23;;;;;;;74.32;25.25;;;;;;;;;;4888034;29;20056;-89
2024/01/19 01:40:49;;;;;;;67.70;21.42;;;;;;;;;;4883405;29;20037;-88
2024/01/19 01:43:23;;;;;;;73.07;24.35;;;;;;;;;;4884896;29;20043;-89
2024/01/19 01:45:50;;;;;;;68.93;22.38;;;;;;;;;;4888149;29;20053;-88
2024/01/19 01:48:18;;;;;;;72.18;19.83;;;;;;;;;;4856785;29;20041;-90
2024/01/19 01:50:45;;;;;;;72.32;20.95;;;;;;;;;;4880097;29;20048;-90
2024/01/19 01:53:13;;;;;;;73.47;26.33;;;;;;;;;;4874705;29;20045;-89
2024/01/19 01:55:40;;;;;;;75.68;22.15;;;;;;;;;;4877885;29;20036;-89
2024/01/19 01:58:08;;;;;;;61.42;21.42;;;;;;;;;;4857944;29;20033;-89
2024/01/19 02:03:27;;;;;;;968.17;98.40;;;;;;;;;;4719724;29;20046;-90
2024/01/19 02:05:53;;;;;;;903.25;92.13;;;;;;;;;;4733696;29;20052;-87
2024/01/19 02:08:20;;;;;;;967.42;96.95;;;;;;;;;;4732608;29;20053;-90
2024/01/19 02:10:47;;;;;;;940.33;95.60;;;;;;;;;;4730310;29;21083;-88
2024/01/19 02:13:15;;;;;;;945.97;96.95;;;;;;;;;;4731642;29;20117;-88
2024/01/19 02:15:41;;;;;;;969.63;98.30;;;;;;;;;;4733524;29;20537;-88
2024/01/19 02:18:08;;;;;;;904.78;92.20;;;;;;;;;;4733297;29;21316;-88
2024/01/19 02:20:34;;;;;;;964.33;92.85;;;;;;;;;;4733891;29;20049;-88
2024/01/19 02:23:02;;;;;;;1045.63;104.38;;;;;;;;;;4729704;29;20041;-88
2024/01/19 02:25:28;;;;;;;1063.03;110.05;;;;;;;;;;4728579;29;20061;-88
2024/01/19 02:27:55;;;;;;;863.67;86.18;;;;;;;;;;4733022;29;20134;-87
2024/01/19 02:30:22;;;;;;;936.88;94.72;;;;;;;;;;4722237;29;20045;-88
2024/01/19 02:32:49;;;;;;;642.28;61.60;;;;;;;;;;4740065;29;20034;-88
2024/01/19 02:35:15;;;;;;;660.78;65.60;;;;;;;;;;4762757;29;20992;-87
2024/01/19 02:37:42;;;;;;;651.88;62.78;;;;;;;;;;4766230;29;20178;-88
2024/01/19 02:40:09;;;;;;;962.55;94.47;;;;;;;;;;4743112;29;20121;-88
2024/01/19 02:42:36;;;;;;;954.40;99.35;;;;;;;;;;4734159;29;21062;-88
2024/01/19 02:45:03;;;;;;;939.50;94.05;;;;;;;;;;4733746;29;20977;-88
2024/01/19 02:47:29;;;;;;;931.42;91.88;;;;;;;;;;4736949;29;20050;-88
2024/01/19 02:49:59;;;;;;;894.30;93.90;;;;;;;;;;4733840;29;21005;-88
2024/01/19 02:52:26;;;;;;;981.05;97.35;;;;;;;;;;4733315;29;20053;-88
2024/01/19 02:54:52;;;;;;;915.53;95.85;;;;;;;;;;4735109;29;20144;-88
2024/01/19 02:57:21;;;;;;;848.30;87.35;;;;;;;;;;4730354;29;20034;-88
2024/01/19 02:59:48;;;;;;;845.78;82.93;;;;;;;;;;4734166;29;20886;-88
2024/01/19 03:02:14;;;;;;;925.70;91.57;;;;;;;;;;4733325;29;20861;-88
2024/01/19 03:04:41;;;;;;;959.13;98.70;;;;;;;;;;4731691;29;20050;-88
2024/01/19 03:07:07;;;;;;;922.85;91.47;;;;;;;;;;4732472;29;21091;-88
2024/01/19 03:09:34;;;;;;;971.63;93.70;;;;;;;;;;4732103;29;20149;-88
2024/01/19 03:12:01;;;;;;;914.35;95.45;;;;;;;;;;4733175;29;20073;-88
2024/01/19 03:14:27;;;;;;;970.58;96.40;;;;;;;;;;4729540;29;20057;-88
2024/01/19 03:16:54;;;;;;;947.85;93.03;;;;;;;;;;4727992;29;20123;-87
2024/01/19 03:19:21;;;;;;;901.85;87.05;;;;;;;;;;4729811;29;20046;-87
2024/01/19 03:21:47;;;;;;;979.72;94.38;;;;;;;;;;4726798;29;20093;-87
2024/01/19 03:24:14;;;;;;;944.33;93.57;;;;;;;;;;4730346;29;20935;-88
2024/01/19 03:26:42;;;;;;;991.47;94.95;;;;;;;;;;4727775;29;20050;-87
2024/01/19 03:29:09;;;;;;;961.53;94.05;;;;;;;;;;4711678;29;21174;-88
2024/01/19 03:31:35;;;;;;;1011.67;100.32;;;;;;;;;;4726586;29;20046;-88
2024/01/19 03:34:02;;;;;;;975.92;95.93;;;;;;;;;;4727348;29;20046;-88
2024/01/19 03:36:29;;;;;;;946.40;90.82;;;;;;;;;;4729512;29;20156;-88
2024/01/19 03:38:55;;;;;;;986.72;92.97;;;;;;;;;;4727827;29;20129;-88
2024/01/19 03:41:22;;;;;;;914.85;87.32;;;;;;;;;;4727510;29;20046;-88
2024/01/19 03:43:49;;;;;;;918.60;88.88;;;;;;;;;;4729619;29;21228;-87
2024/01/19 03:46:16;;;;;;;962.08;92.18;;;;;;;;;;4728813;29;20137;-88
2024/01/19 03:48:43;;;;;;;912.88;84.72;;;;;;;;;;4712011;29;20057;-88
2024/01/19 03:51:10;;;;;;;973.25;92.28;;;;;;;;;;4728743;29;20962;-88
2024/01/19 03:53:36;;;;;;;1001.40;96.55;;;;;;;;;;4726255;29;20034;-89
2024/01/19 03:56:03;;;;;;;910.88;85.70;;;;;;;;;;4727385;29;20042;-88
2024/01/19 03:58:30;;;;;;;975.35;93.93;;;;;;;;;;4728648;29;20042;-88
2024/01/19 04:00:56;;;;;;;1041.15;97.88;;;;;;;;;;4728985;29;20053;-88
2024/01/19 04:03:23;;;;;;;928.67;87.93;;;;;;;;;;4729182;29;20088;-88
2024/01/19 04:05:49;;;;;;;919.80;88.97;;;;;;;;;;4724499;29;20034;-88
2024/01/19 04:08:16;;;;;;;1002.78;97.40;;;;;;;;;;4729258;29;20121;-88
2024/01/19 04:10:43;;;;;;;943.10;92.35;;;;;;;;;;4724071;29;20046;-88
2024/01/19 04:13:10;;;;;;;983.30;95.95;;;;;;;;;;4727073;29;20046;-88
2024/01/19 04:15:36;;;;;;;1045.22;102.88;;;;;;;;;;4726763;29;20050;-88
2024/01/19 04:18:04;;;;;;;956.88;96.72;;;;;;;;;;4728079;29;20145;-88
2024/01/19 04:20:31;;;;;;;948.70;93.82;;;;;;;;;;4728316;29;20042;-88
2024/01/19 04:22:57;;;;;;;957.15;92.97;;;;;;;;;;4727668;29;20057;-87
2024/01/19 04:25:25;;;;;;;920.85;92.88;;;;;;;;;;4728682;29;20072;-88
2024/01/19 04:27:52;;;;;;;905.20;92.03;;;;;;;;;;4714589;29;21128;-88
2024/01/19 04:30:19;;;;;;;922.05;90.40;;;;;;;;;;4729922;29;20076;-88
2024/01/19 04:32:45;;;;;;;897.65;83.80;;;;;;;;;;4728239;29;20046;-87
2024/01/19 04:35:12;;;;;;;951.85;90.00;;;;;;;;;;4727948;29;20596;-88
2024/01/19 04:37:38;;;;;;;1048.93;102.28;;;;;;;;;;4724603;29;20053;-88
2024/01/19 04:40:05;;;;;;;943.10;87.22;;;;;;;;;;4751451;29;20076;-88
2024/01/19 04:42:32;;;;;;;965.33;88.95;;;;;;;;;;4738212;29;20179;-88
2024/01/19 04:44:58;;;;;;;1002.40;95.18;;;;;;;;;;4730158;29;20079;-88
2024/01/19 04:47:25;;;;;;;944.42;88.25;;;;;;;;;;4743507;29;20631;-89
2024/01/19 04:49:52;;;;;;;999.20;94.50;;;;;;;;;;4749900;29;20030;-87
2024/01/19 04:52:19;;;;;;;1045.03;99.68;;;;;;;;;;4749977;29;20045;-88
2024/01/19 04:54:45;;;;;;;946.53;92.38;;;;;;;;;;4750942;29;20059;-87
2024/01/19 04:57:12;;;;;;;916.85;86.32;;;;;;;;;;4750929;29;20126;-87
2024/01/19 04:59:38;;;;;;;721.45;67.63;;;;;;;;;;4747835;29;20553;-87
2024/01/19 05:02:05;;;;;;;665.63;61.95;;;;;;;;;;4763875;29;20139;-87
2024/01/19 05:04:32;;;;;;;795.15;75.93;;;;;;;;;;4760853;29;20056;-87
2024/01/19 05:06:58;;;;;;;833.60;79.50;;;;;;;;;;4750068;29;20541;-88
2024/01/19 05:09:25;;;;;;;676.28;62.97;;;;;;;;;;4752686;29;20105;-88
2024/01/19 05:11:51;;;;;;;720.00;69.63;;;;;;;;;;4758935;29;20957;-87
2024/01/19 05:14:18;;;;;;;789.92;75.55;;;;;;;;;;4752062;29;20924;-87
2024/01/19 05:16:45;;;;;;;628.15;58.63;;;;;;;;;;4762255;29;20871;-87
2024/01/19 05:19:11;;;;;;;742.92;70.40;;;;;;;;;;4755039;29;21056;-88
2024/01/19 05:21:38;;;;;;;778.08;72.50;;;;;;;;;;4755561;29;20042;-87
2024/01/19 05:24:04;;;;;;;669.83;62.00;;;;;;;;;;4760274;29;20049;-88
2024/01/19 05:26:32;;;;;;;694.03;64.85;;;;;;;;;;4759422;29;20049;-86
2024/01/19 05:28:58;;;;;;;812.08;79.38;;;;;;;;;;4759587;29;20909;-87
2024/01/19 05:31:25;;;;;;;693.40;64.70;;;;;;;;;;4750465;29;20054;-87
2024/01/19 05:33:52;;;;;;;779.25;72.18;;;;;;;;;;4748215;29;20065;-88
2024/01/19 05:36:20;;;;;;;760.45;67.10;;;;;;;;;;4752368;29;20053;-87
2024/01/19 05:38:46;;;;;;;794.13;74.95;;;;;;;;;;4748594;29;20126;-88
2024/01/19 05:41:22;;;;;;;791.00;76.13;;;;;;;;;;4750049;29;21053;-87
2024/01/19 05:43:49;;;;;;;735.78;68.80;;;;;;;;;;4747579;29;20557;-87
2024/01/19 05:46:16;;;;;;;744.85;68.30;;;;;;;;;;4754621;29;20058;-87
2024/01/19 05:48:42;;;;;;;861.63;81.55;;;;;;;;;;4756262;29;21090;-87
2024/01/19 05:51:15;;;;;;;866.08;80.72;;;;;;;;;;4744521;29;20950;-87
2024/01/19 05:53:42;;;;;;;905.08;85.68;;;;;;;;;;4741350;29;21092;-86
2024/01/19 05:56:09;;;;;;;890.47;83.40;;;;;;;;;;4742273;29;20998;-87
2024/01/19 05:58:36;;;;;;;885.65;82.72;;;;;;;;;;4754283;29;20472;-88
2024/01/19 06:01:03;;;;;;;978.53;89.93;;;;;;;;;;4745082;29;20054;-88
2024/01/19 06:03:29;;;;;;;843.88;78.40;;;;;;;;;;4730154;29;20057;-88
2024/01/19 06:05:56;;;;;;;787.58;72.32;;;;;;;;;;4744071;29;20132;-88
2024/01/19 06:08:23;;;;;;;866.22;79.97;;;;;;;;;;4729575;29;20042;-88
2024/01/19 06:10:50;;;;;;;869.90;80.50;;;;;;;;;;4732372;29;20832;-88
2024/01/19 06:13:17;;;;;;;869.45;81.20;;;;;;;;;;4741957;29;22233;-88
2024/01/19 06:15:44;;;;;;;870.40;81.70;;;;;;;;;;4710456;29;20074;-89
2024/01/19 06:18:11;;;;;;;904.10;83.95;;;;;;;;;;4733547;29;20046;-88
2024/01/19 06:20:42;;;;;;;871.30;81.15;;;;;;;;;;4737565;29;20157;-88
2024/01/19 06:23:12;;;;;;;1089.45;104.95;;;;;;;;;;4720141;29;20050;-90
2024/01/19 06:25:39;;;;;;;803.17;74.60;;;;;;;;;;4731592;29;20042;-88
2024/01/19 06:28:07;;;;;;;869.42;79.57;;;;;;;;;;4726094;29;20042;-89
2024/01/19 06:30:34;;;;;;;896.03;83.72;;;;;;;;;;4735005;29;20042;-88
2024/01/19 06:33:05;;;;;;;884.22;82.05;;;;;;;;;;4733816;29;20881;-89
2024/01/19 06:35:35;;;;;;;928.25;88.03;;;;;;;;;;4720785;29;20058;-89
2024/01/19 06:38:04;;;;;;;885.47;84.70;;;;;;;;;;4715519;29;21340;-88
2024/01/19 06:40:31;;;;;;;881.92;84.57;;;;;;;;;;4726321;29;20204;-88
2024/01/19 06:42:57;;;;;;;949.40;90.55;;;;;;;;;;4747083;29;20463;-88
2024/01/19 06:45:26;;;;;;;922.78;87.22;;;;;;;;;;4753635;29;20045;-89
2024/01/19 06:47:53;;;;;;;865.15;80.65;;;;;;;;;;4722404;29;20063;-88
2024/01/19 06:50:20;;;;;;;842.95;79.25;;;;;;;;;;4723766;29;20161;-89
2024/01/19 06:52:46;;;;;;;823.35;77.97;;;;;;;;;;4737842;29;20038;-90
2024/01/19 06:55:13;;;;;;;808.58;76.50;;;;;;;;;;4743802;29;20038;-89
2024/01/19 06:57:40;;;;;;;685.17;64.25;;;;;;;;;;4753091;29;20038;-89
2024/01/19 07:00:07;;;;;;;669.47;62.55;;;;;;;;;;4767643;29;20049;-89
2024/01/19 07:02:34;;;;;;;569.83;54.10;;;;;;;;;;4764884;29;20096;-91
2024/01/19 07:05:01;;;;;;;800.70;76.47;;;;;;;;;;4743391;29;20046;-89
2024/01/19 07:07:27;;;;;;;815.88;78.07;;;;;;;;;;4744559;29;20878;-90
2024/01/19 07:09:54;;;;;;;689.08;64.95;;;;;;;;;;4744391;29;20044;-89
2024/01/19 07:12:20;;;;;;;808.08;74.97;;;;;;;;;;4745337;29;20045;-89
2024/01/19 07:14:47;;;;;;;888.80;84.32;;;;;;;;;;4743382;29;20966;-89
2024/01/19 07:17:13;;;;;;;882.78;83.75;;;;;;;;;;4739364;29;20046;-89
2024/01/19 07:19:42;;;;;;;839.05;79.72;;;;;;;;;;4741899;29;20049;-89
2024/01/19 07:22:09;;;;;;;751.97;69.32;;;;;;;;;;4742184;29;20042;-90
2024/01/19 07:24:35;;;;;;;847.70;79.93;;;;;;;;;;4737652;29;20127;-88
2024/01/19 07:27:04;;;;;;;904.45;86.80;;;;;;;;;;4741130;29;20082;-88
2024/01/19 07:29:34;;;;;;;854.20;80.78;;;;;;;;;;4738560;29;20049;-88
2024/01/19 07:32:00;;;;;;;869.90;81.10;;;;;;;;;;4740861;29;20038;-89
2024/01/19 07:34:27;;;;;;;777.95;72.38;;;;;;;;;;4742876;29;20906;-89
2024/01/19 07:36:54;;;;;;;901.30;86.07;;;;;;;;;;4741498;29;20038;-86
2024/01/19 07:39:24;;;;;;;538.00;48.05;;;;;;;;;;4758216;29;20230;-90
2024/01/19 07:41:51;;;;;;;712.00;65.57;;;;;;;;;;4753539;29;20038;-90
2024/01/19 07:44:18;;;;;;;695.78;66.30;;;;;;;;;;4757546;29;20052;-88
2024/01/19 07:46:45;;;;;;;882.92;85.13;;;;;;;;;;4734020;29;20038;-87
2024/01/19 07:49:11;;;;;;;813.20;78.53;;;;;;;;;;4753342;29;20106;-89
2024/01/19 07:51:38;;;;;;;863.45;81.72;;;;;;;;;;4744253;29;20664;-88
2024/01/19 07:54:04;;;;;;;839.30;78.97;;;;;;;;;;4744169;29;20042;-88
2024/01/19 07:56:31;;;;;;;818.78;75.85;;;;;;;;;;4745223;29;20040;-88
2024/01/19 07:58:58;;;;;;;807.40;75.43;;;;;;;;;;4727548;29;20943;-88
2024/01/19 08:01:24;;;;;;;781.35;74.03;;;;;;;;;;4744354;29;20057;-89
2024/01/19 08:03:51;;;;;;;768.47;71.78;;;;;;;;;;4749649;29;20165;-88
2024/01/19 08:06:18;;;;;;;719.72;66.30;;;;;;;;;;4753089;29;20046;-88
2024/01/19 08:08:45;;;;;;;548.42;49.58;;;;;;;;;;4764235;29;20042;-88
2024/01/19 08:11:12;;;;;;;566.00;53.88;;;;;;;;;;4774289;29;20042;-88
2024/01/19 08:13:39;;;;;;;607.80;89.82;;;;;;;;;;4769924;29;20038;-89
2024/01/19 08:16:07;;;;;;;483.27;46.38;;;;;;;;;;4782806;29;21187;-89
2024/01/19 08:18:34;;;;;;;500.30;47.50;;;;;;;;;;4776353;29;20773;-89
2024/01/19 08:21:03;;;;;;;654.55;61.60;;;;;;;;;;4752357;29;20810;-88
2024/01/19 08:23:30;;;;;;;672.92;62.40;;;;;;;;;;4760440;29;20068;-89
2024/01/19 08:25:57;;;;;;;717.85;66.97;;;;;;;;;;4758015;29;20941;-89
2024/01/19 08:28:27;;;;;;;469.20;44.75;;;;;;;;;;4765833;29;20050;-88
2024/01/19 08:30:53;;;;;;;481.02;45.38;;;;;;;;;;4790856;29;20034;-88
2024/01/19 08:33:21;;;;;;;455.58;42.20;;;;;;;;;;4786740;29;20141;-88
2024/01/19 08:35:49;;;;;;;423.98;40.45;;;;;;;;;;4798809;29;20191;-87
2024/01/19 08:38:17;;;;;;;381.65;37.97;;;;;;;;;;4795472;29;20057;-88
2024/01/19 08:40:43;;;;;;;540.58;50.55;;;;;;;;;;4777528;29;20038;-87
2024/01/19 08:43:10;;;;;;;427.23;41.85;;;;;;;;;;4774813;29;20038;-87
2024/01/19 08:45:37;;;;;;;438.73;41.38;;;;;;;;;;4781207;29;20050;-88
2024/01/19 08:48:05;;;;;;;610.40;56.38;;;;;;;;;;4770657;29;20984;-87
2024/01/19 08:50:31;;;;;;;610.22;56.45;;;;;;;;;;4739090;29;20041;-89
2024/01/19 08:52:58;;;;;;;499.00;45.35;;;;;;;;;;4761679;29;20226;-90
2024/01/19 08:55:25;;;;;;;549.63;51.45;;;;;;;;;;4745700;29;20810;-89
2024/01/19 08:57:52;;;;;;;574.03;54.45;;;;;;;;;;4759158;29;20038;-90
2024/01/19 09:00:18;;;;;;;541.90;50.45;;;;;;;;;;4748363;29;20919;-89
2024/01/19 09:02:48;;;;;;;696.85;66.80;;;;;;;;;;4755664;29;20057;-89
2024/01/19 09:05:28;;;;;;;668.65;61.53;;;;;;;;;;4747110;29;20042;-90
2024/01/19 09:07:55;;;;;;;682.70;64.80;;;;;;;;;;4742766;29;20072;-90
2024/01/19 09:10:23;;;;;;;815.88;78.50;;;;;;;;;;4739057;29;20052;-89
2024/01/19 09:12:50;;;;;;;799.67;77.47;;;;;;;;;;4724660;29;20878;-89
2024/01/19 09:15:16;;;;;;;712.58;65.82;;;;;;;;;;4746838;29;20041;-89
2024/01/19 09:17:43;;;;;;;718.95;66.38;;;;;;;;;;4739924;29;20845;-89
2024/01/19 09:20:10;;;;;;;690.55;65.55;;;;;;;;;;4741629;29;20046;-90
2024/01/19 09:22:37;;;;;;;596.78;56.15;;;;;;;;;;4747259;29;20886;-89
2024/01/19 09:25:04;;;;;;;744.35;71.93;;;;;;;;;;4742387;29;20037;-90
2024/01/19 09:27:30;;;;;;;715.03;67.43;;;;;;;;;;4748228;29;20828;-89
2024/01/19 09:29:57;;;;;;;714.08;67.97;;;;;;;;;;4755897;29;20112;-89
2024/01/19 09:32:24;;;;;;;876.28;85.00;;;;;;;;;;4734304;29;20070;-89
2024/01/19 09:34:51;;;;;;;870.15;82.57;;;;;;;;;;4733464;29;20047;-89
2024/01/19 09:37:17;;;;;;;791.80;75.57;;;;;;;;;;4739429;29;21208;-89
2024/01/19 09:39:44;;;;;;;804.05;76.95;;;;;;;;;;4734989;29;20244;-89
2024/01/19 09:42:24;;;;;;;867.15;82.97;;;;;;;;;;4742914;29;20840;-88
2024/01/19 09:45:17;;;;;;;618.00;57.67;;;;;;;;;;4765629;29;20053;-88
2024/01/19 09:48:04;;;;;;;494.90;45.00;;;;;;;;;;4772133;29;20056;-89
2024/01/19 09:50:35;;;;;;;782.20;75.35;;;;;;;;;;4752037;29;20046;-89
2024/01/19 09:53:15;;;;;;;832.15;79.75;;;;;;;;;;4740174;29;20638;-88
2024/01/19 09:55:41;;;;;;;765.67;74.13;;;;;;;;;;4724683;29;20057;-90
2024/01/19 09:58:08;;;;;;;809.58;78.32;;;;;;;;;;4741367;29;20214;-87
2024/01/19 10:00:35;;;;;;;875.58;86.20;;;;;;;;;;4733845;29;20575;-87
2024/01/19 10:03:02;;;;;;;912.10;90.68;;;;;;;;;;4731241;29;20074;-87
2024/01/19 10:05:29;;;;;;;926.38;90.28;;;;;;;;;;4735523;29;20046;-88
2024/01/19 10:07:57;;;;;;;1173.55;116.75;;;;;;;;;;4696414;29;20050;-88
2024/01/19 10:10:25;;;;;;;921.95;89.43;;;;;;;;;;4720838;29;20053;-88
2024/01/19 10:12:52;;;;;;;891.90;86.80;;;;;;;;;;4723623;29;21036;-88
2024/01/19 10:15:19;;;;;;;1271.85;127.43;;;;;;;;;;4713750;29;20046;-87
2024/01/19 10:17:46;;;;;;;926.10;90.90;;;;;;;;;;4705225;29;20065;-88
2024/01/19 10:20:16;;;;;;;890.30;84.85;;;;;;;;;;4732285;29;20542;-88
2024/01/19 10:22:43;;;;;;;799.88;75.82;;;;;;;;;;4751823;29;21149;-88
2024/01/19 10:25:13;;;;;;;822.15;74.82;;;;;;;;;;4748683;29;20038;-88
2024/01/19 10:27:41;;;;;;;1236.82;121.53;;;;;;;;;;4727052;29;20283;-89
2024/01/19 10:30:12;;;;;;;889.30;85.40;;;;;;;;;;4723785;29;20038;-88
2024/01/19 10:32:40;;;;;;;895.85;86.72;;;;;;;;;;4736021;29;20046;-88
2024/01/19 10:35:08;;;;;;;868.72;82.78;;;;;;;;;;4733557;29;20222;-88
2024/01/19 10:37:35;;;;;;;853.05;80.35;;;;;;;;;;4738551;29;20037;-88
2024/01/19 10:40:14;;;;;;;775.58;73.72;;;;;;;;;;4746311;29;20385;-87
2024/01/19 10:42:42;;;;;;;782.33;73.78;;;;;;;;;;4735364;29;20844;-88
2024/01/19 10:45:15;;;;;;;660.85;60.15;;;;;;;;;;4750281;29;20762;-88
2024/01/19 10:47:43;;;;;;;677.80;62.67;;;;;;;;;;4762539;29;20350;-89
2024/01/19 10:50:16;;;;;;;644.97;60.58;;;;;;;;;;4770565;29;20038;-89
2024/01/19 10:52:44;;;;;;;668.75;62.38;;;;;;;;;;4766317;29;20046;-89
2024/01/19 10:55:18;;;;;;;673.30;63.83;;;;;;;;;;4761859;29;20046;-88
2024/01/19 10:57:45;;;;;;;728.10;68.40;;;;;;;;;;4741178;29;20045;-89
2024/01/19 11:00:22;;;;;;;695.50;65.53;;;;;;;;;;4756237;29;21011;-89
2024/01/19 11:02:49;;;;;;;752.30;71.63;;;;;;;;;;4754975;29;20050;-88
2024/01/19 11:05:18;;;;;;;719.15;67.40;;;;;;;;;;4735603;29;20045;-89
2024/01/19 11:07:45;;;;;;;807.55;77.95;;;;;;;;;;4746811;29;20124;-88
2024/01/19 11:10:12;;;;;;;754.95;74.25;;;;;;;;;;4745224;29;21028;-88
2024/01/19 11:12:44;;;;;;;748.65;74.85;;;;;;;;;;4756357;29;20108;-89
2024/01/19 11:15:13;;;;;;;732.53;71.35;;;;;;;;;;4758864;29;20050;-88
2024/01/19 11:17:40;;;;;;;793.22;77.35;;;;;;;;;;4746013;29;20101;-89
2024/01/19 11:20:08;;;;;;;750.92;74.13;;;;;;;;;;4748953;29;20046;-87
2024/01/19 11:22:35;;;;;;;692.45;66.32;;;;;;;;;;4754989;29;20070;-88
2024/01/19 11:25:08;;;;;;;701.25;67.03;;;;;;;;;;4751630;29;20812;-88
2024/01/19 11:27:40;;;;;;;654.53;62.53;;;;;;;;;;4761199;29;20928;-88
2024/01/19 11:30:19;;;;;;;563.28;53.10;;;;;;;;;;4761528;29;20053;-89
2024/01/19 11:32:46;;;;;;;667.30;62.72;;;;;;;;;;4774854;29;20046;-88
2024/01/19 11:35:32;;;;;;;690.85;66.57;;;;;;;;;;4776203;29;20053;-87
2024/01/19 11:37:59;;;;;;;577.47;54.88;;;;;;;;;;4771310;29;20541;-88
2024/01/19 11:40:29;;;;;;;620.63;55.20;;;;;;;;;;4765606;29;20054;-89
2024/01/19 11:42:55;;;;;;;648.20;59.78;;;;;;;;;;4762560;29;20053;-88
2024/01/19 11:45:28;;;;;;;727.47;69.10;;;;;;;;;;4762308;29;20361;-88
2024/01/19 11:47:55;;;;;;;700.83;62.78;;;;;;;;;;4756620;29;20041;-88
2024/01/19 11:50:42;;;;;;;674.83;64.00;;;;;;;;;;4763659;29;20545;-88
2024/01/19 11:53:09;;;;;;;519.60;47.80;;;;;;;;;;4764569;29;20874;-89
2024/01/19 11:55:36;;;;;;;590.55;54.33;;;;;;;;;;4762788;29;20046;-88
2024/01/19 11:58:22;;;;;;;536.30;48.80;;;;;;;;;;4759560;29;20042;-89
2024/01/19 12:00:48;;;;;;;567.22;52.92;;;;;;;;;;4763800;29;20141;-89
2024/01/19 12:03:15;;;;;;;531.78;48.42;;;;;;;;;;4758905;29;20164;-89
2024/01/19 12:05:42;;;;;;;575.55;53.72;;;;;;;;;;4751878;29;20038;-89
2024/01/19 12:08:11;;;;;;;634.28;59.72;;;;;;;;;;4755871;29;20046;-89
2024/01/19 12:10:38;;;;;;;600.50;57.50;;;;;;;;;;4759569;29;20038;-88
2024/01/19 12:13:04;;;;;;;683.97;65.00;;;;;;;;;;4751831;29;20038;-88
2024/01/19 12:15:31;;;;;;;782.38;76.05;;;;;;;;;;4752405;29;20909;-88
2024/01/19 12:17:58;;;;;;;720.60;65.63;;;;;;;;;;4738107;29;20042;-88
2024/01/19 12:20:25;;;;;;;629.13;62.72;;;;;;;;;;4753322;29;20448;-89
2024/01/19 12:22:52;;;;;;;692.88;65.63;;;;;;;;;;4741967;29;20065;-88
2024/01/19 12:25:20;;;;;;;876.25;86.18;;;;;;;;;;4734032;29;21176;-87
2024/01/19 12:27:48;;;;;;;909.58;89.32;;;;;;;;;;4733975;29;20900;-88
2024/01/19 12:30:17;;;;;;;875.47;85.07;;;;;;;;;;4737355;29;20066;-89
2024/01/19 12:32:46;;;;;;;718.20;72.20;;;;;;;;;;4750148;29;20046;-86
2024/01/19 12:35:13;;;;;;;618.85;59.15;;;;;;;;;;4759152;29;20045;-87
2024/01/19 12:37:40;;;;;;;875.03;86.63;;;;;;;;;;4749346;29;20046;-87
2024/01/19 12:40:13;;;;;;;748.05;72.40;;;;;;;;;;4746253;29;20041;-88
2024/01/19 12:42:43;;;;;;;741.70;71.30;;;;;;;;;;4746799;29;20084;-90
2024/01/19 12:45:18;;;;;;;750.35;72.70;;;;;;;;;;4747708;29;20202;-89
2024/01/19 12:47:45;;;;;;;772.63;76.00;;;;;;;;;;4744183;29;21058;-88
2024/01/19 12:50:15;;;;;;;858.40;84.35;;;;;;;;;;4740274;29;20074;-88
2024/01/19 12:52:52;;;;;;;814.42;78.65;;;;;;;;;;4737504;29;20046;-89
2024/01/19 12:55:32;;;;;;;794.22;77.43;;;;;;;;;;4748916;29;21016;-89
2024/01/19 12:57:59;;;;;;;644.50;65.47;;;;;;;;;;4766783;29;20206;-89
2024/01/19 13:00:54;;;;;;;266.08;28.80;;;;;;;;;;4786808;29;20126;-91
2024/01/19 13:03:29;;;;;;;461.20;45.90;;;;;;;;;;4780453;29;20054;-89
2024/01/19 13:05:59;;;;;;;120.32;19.42;;;;;;;;;;4809022;29;20041;-91
2024/01/19 13:08:26;;;;;;;652.17;61.47;;;;;;;;;;4751469;29;20102;-89
2024/01/19 13:11:06;;;;;;;695.20;65.97;;;;;;;;;;4753219;29;20041;-90
2024/01/19 13:13:33;;;;;;;650.33;62.58;;;;;;;;;;4738702;29;20056;-89
2024/01/19 13:16:08;;;;;;;550.03;51.58;;;;;;;;;;4772562;29;20038;-90
2024/01/19 13:18:35;;;;;;;489.98;45.17;;;;;;;;;;4774643;29;20122;-90
2024/01/19 13:21:09;;;;;;;449.70;42.55;;;;;;;;;;4779899;29;20050;-89
2024/01/19 13:23:36;;;;;;;358.83;34.47;;;;;;;;;;4788628;29;20050;-90
2024/01/19 13:26:03;;;;;;;373.90;37.17;;;;;;;;;;4794854;29;20065;-90
2024/01/19 13:28:30;;;;;;;424.38;41.33;;;;;;;;;;4786838;29;20034;-90
2024/01/19 13:30:57;;;;;;;580.13;54.80;;;;;;;;;;4779214;29;20046;-90
2024/01/19 13:33:23;;;;;;;461.10;44.20;;;;;;;;;;4774691;29;20046;-89
2024/01/19 13:35:51;;;;;;;527.80;49.53;;;;;;;;;;4772051;29;20049;-90
2024/01/19 13:38:19;;;;;;;603.33;56.90;;;;;;;;;;4767108;29;20038;-89
2024/01/19 13:40:49;;;;;;;536.53;50.72;;;;;;;;;;4762593;29;20053;-90
2024/01/19 13:43:16;;;;;;;587.50;54.97;;;;;;;;;;4763698;29;20045;-90
2024/01/19 13:45:43;;;;;;;603.95;56.60;;;;;;;;;;4761116;29;20875;-90
2024/01/19 13:48:09;;;;;;;595.03;55.78;;;;;;;;;;4758959;29;20069;-90
2024/01/19 13:50:36;;;;;;;612.13;58.00;;;;;;;;;;4756268;29;20058;-90
2024/01/19 13:53:03;;;;;;;652.15;62.55;;;;;;;;;;4756131;29;20145;-90
2024/01/19 13:55:29;;;;;;;586.88;54.88;;;;;;;;;;4760128;29;20050;-90
2024/01/19 13:57:56;;;;;;;650.33;62.72;;;;;;;;;;4784694;29;20113;-90
2024/01/19 14:00:23;;;;;;;598.53;56.42;;;;;;;;;;4788265;29;20046;-90
2024/01/19 14:02:50;;;;;;;606.08;57.40;;;;;;;;;;4785187;29;20170;-90
2024/01/19 14:05:17;;;;;;;527.28;50.25;;;;;;;;;;4783121;29;20091;-90
2024/01/19 14:07:44;;;;;;;373.45;31.52;;;;;;;;;;4792760;29;20076;-90
2024/01/19 14:10:11;;;;;;;420.10;39.92;;;;;;;;;;4776179;29;20076;-90
2024/01/19 14:12:38;;;;;;;458.30;42.50;;;;;;;;;;4781096;29;20932;-90